Date,TemperatureHighF,TemperatureAvgF,TemperatureLowF,DewpointHighF,DewpointAvgF,DewpointLowF,HumidityHigh,HumidityAvg,HumidityLow,PressureMaxIn,PressureMinIn,WindSpeedMaxMPH,WindSpeedAvgMPH,GustSpeedMaxMPH,PrecipitationSumIn
2013-1-1,65,57,51,-100,-100,-100,0,0,100,30.20,29.94,11,5,16,0.00
2013-1-2,63,58,53,-100,-100,-100,0,0,100,30.12,29.89,13,8,19,0.00
2013-1-3,53,50,47,-100,-100,-100,0,0,100,30.25,30.06,14,-15,17,0.00
2013-1-4,58,48,40,-100,-100,-100,0,0,100,30.33,30.23,12,5,15,0.00
2013-1-5,52,46,38,-100,-100,-100,0,0,100,30.39,30.27,13,6,16,0.00
2013-1-6,55,50,48,-100,-100,-100,0,0,100,30.28,30.10,8,4,14,0.00
2013-1-7,53,49,45,-100,-100,-100,0,0,100,30.37,30.15,20,12,24,0.00
2013-1-8,65,54,45,-100,-100,-100,0,0,100,30.37,30.28,15,7,18,0.00
2013-1-9,70,61,55,-100,-100,-100,0,0,100,30.37,30.29,8,-39,11,0.00
2013-1-10,66,59,55,-100,-100,-100,0,0,100,30.42,30.33,22,1,28,0.00
2013-1-11,74,61,55,-100,-100,-100,0,0,100,30.34,30.17,11,-17,17,0.00
2013-1-12,71,64,57,-100,-100,-100,0,0,100,30.20,30.11,8,-3,11,0.00
2013-1-13,73,63,55,-100,-100,-100,0,0,100,30.18,30.08,9,-29,13,0.00
2013-1-14,75,69,62,-100,-100,-100,0,0,100,30.20,30.11,8,5,12,0.00
2013-1-15,72,66,60,-100,-100,-100,0,0,100,30.16,30.03,13,5,17,0.00
2013-1-16,74,68,63,-100,-100,-100,0,0,100,30.06,29.96,14,8,21,0.00
2013-1-17,71,62,47,-100,-100,-100,0,0,100,30.02,29.75,19,10,27,0.00
2013-1-18,54,48,42,-100,-100,-100,0,0,100,30.47,30.02,20,12,30,0.00
2013-1-19,60,50,44,-100,-100,-100,0,0,100,30.45,30.22,16,6,18,0.00
2013-1-20,68,57,51,-100,-100,-100,0,0,100,30.22,30.03,12,-2,18,0.00
2013-1-21,65,56,47,-100,-100,-100,0,0,100,30.09,29.96,12,-2,18,0.00
2013-1-22,56,50,43,-100,-100,-100,0,0,100,30.27,30.03,13,7,19,0.00
2013-1-23,50,44,37,-100,-100,-100,0,0,100,30.37,30.19,10,6,15,0.00
2013-1-24,67,52,38,-100,-100,-100,0,0,100,30.45,30.09,27,12,32,0.00
2013-1-25,51,42,32,-100,-100,-100,0,0,100,30.44,30.13,19,2,23,0.00
2013-1-26,58,49,42,-100,-100,-100,0,0,100,30.30,30.10,13,6,16,0.00
2013-1-27,49,45,40,-100,-100,-100,0,0,100,30.48,30.30,20,13,23,0.00
2013-1-28,57,50,44,-100,-100,-100,0,0,100,30.45,30.27,11,-8,14,0.00
2013-1-29,73,58,51,-100,-100,-100,0,0,100,30.27,30.12,12,-114,18,0.00
2013-1-30,72,67,64,-100,-100,-100,0,0,100,30.12,29.64,28,16,38,0.00
2013-1-31,64,52,47,-100,-100,-100,0,0,100,30.17,29.70,19,10,30,0.00
2013-2-1,58,50,42,-100,-100,-100,0,0,100,30.35,30.15,15,9,25,0.00
2013-2-2,54,45,36,-100,-100,-100,0,0,100,30.35,30.09,13,8,16,0.00
2013-2-3,61,52,45,-100,-100,-100,0,0,100,30.10,29.91,17,8,26,0.00
2013-2-4,52,48,40,-100,-100,-100,0,0,100,30.14,30.02,8,4,11,0.00
2013-2-5,67,55,47,-100,-100,-100,0,0,100,30.07,29.95,12,6,18,0.00
2013-2-6,65,57,52,-100,-100,-100,0,0,100,30.17,30.01,11,-2,12,0.00
2013-2-7,59,56,53,-100,-100,-100,0,0,100,30.16,29.70,17,7,24,0.00
2013-2-8,65,56,49,-100,-100,-100,0,0,100,30.04,29.69,14,7,23,0.00
2013-2-9,62,52,44,-100,-100,-100,0,0,100,30.33,30.04,14,-8,17,0.00
2013-2-10,63,55,47,-100,-100,-100,0,0,100,30.38,30.19,17,10,20,0.00
2013-2-11,65,62,57,-100,-100,-100,0,0,100,30.22,30.05,13,-22,20,0.00
2013-2-12,60,56,52,-100,-100,-100,0,0,100,30.11,29.86,14,-23,19,0.00
2013-2-13,73,60,49,-100,-100,-100,0,0,100,29.88,29.68,21,-6,30,0.00
2013-2-14,54,50,47,-100,-100,-100,0,0,100,30.07,29.84,14,-9,19,0.00
2013-2-15,55,50,43,-100,-100,-100,0,0,100,30.09,29.97,10,5,12,0.00
2013-2-16,55,46,38,-100,-100,-100,0,0,100,30.02,29.82,19,8,29,0.00
2013-2-17,48,37,31,-100,-100,-100,0,0,100,30.30,30.02,16,8,24,0.00
2013-2-18,50,44,35,-100,-100,-100,0,0,100,30.42,30.26,12,-8,16,0.00
2013-2-19,64,55,47,-100,-100,-100,0,0,100,30.26,29.97,19,7,28,0.00
2013-2-20,53,48,41,-100,-100,-100,0,0,100,30.15,30.03,12,-8,14,0.00
2013-2-21,54,51,44,-100,-100,-100,0,0,100,30.17,30.08,13,-16,15,0.00
2013-2-22,63,56,50,-100,-100,-100,0,0,100,30.18,30.04,25,12,35,0.00
2013-2-23,63,53,47,-100,-100,-100,0,0,100,30.05,29.78,16,-44,19,0.00
2013-2-24,62,55,49,-100,-100,-100,0,0,100,29.99,29.75,12,-15,15,0.00
2013-2-25,55,50,44,-100,-100,-100,0,0,100,30.07,29.93,23,-9,33,0.00
2013-2-26,70,62,49,-100,-100,-100,0,0,100,29.93,29.58,27,16,44,0.00
2013-2-27,64,54,50,-100,-100,-100,0,0,100,29.90,29.69,13,8,21,0.00
2013-2-28,61,54,49,-100,-100,-100,0,0,100,29.89,29.78,13,8,26,0.00
2013-3-1,53,47,41,-100,-100,-100,0,0,100,29.94,29.85,12,6,18,0.00
2013-3-2,50,45,39,-100,-100,-100,0,0,100,29.92,29.83,14,8,22,0.00
2013-3-3,48,42,35,-100,-100,-100,0,0,100,30.01,29.89,13,7,19,0.00
2013-3-4,57,44,32,-100,-100,-100,0,0,100,30.17,30.01,11,6,17,0.00
2013-3-5,63,56,47,-100,-100,-100,0,0,100,30.12,29.72,19,8,32,0.00
2013-3-6,60,49,42,-100,-100,-100,0,0,100,30.07,29.70,20,12,33,0.00
2013-3-7,59,47,38,-100,-100,-100,0,0,100,30.22,30.06,15,7,18,0.00
2013-3-8,61,50,41,-100,-100,-100,0,0,100,30.27,30.14,11,5,19,0.00
2013-3-9,53,49,43,-100,-100,-100,0,0,100,30.31,30.23,16,7,19,0.00
2013-3-10,61,53,46,-100,-100,-100,0,0,100,30.27,30.20,12,-10,14,0.00
2013-3-11,67,58,52,-100,-100,-100,0,0,100,30.21,29.91,17,7,22,0.00
2013-3-12,69,64,60,-100,-100,-100,0,0,100,29.93,29.80,19,11,28,0.00
2013-3-13,66,58,49,-100,-100,-100,0,0,100,30.11,29.93,20,8,26,0.00
2013-3-14,56,48,40,-100,-100,-100,0,0,100,30.30,30.09,15,8,22,0.00
2013-3-15,62,52,43,-100,-100,-100,0,0,100,30.22,30.04,16,8,21,0.00
2013-3-16,74,63,56,-100,-100,-100,0,0,100,30.05,29.87,17,10,23,0.00
2013-3-17,73,64,60,-100,-100,-100,0,0,100,30.03,29.95,14,8,21,0.00
2013-3-18,66,60,57,-100,-100,-100,0,0,100,30.07,29.85,14,7,19,0.00
2013-3-19,76,64,55,-100,-100,-100,0,0,100,29.98,29.81,19,7,28,0.00
2013-3-20,63,55,51,-100,-100,-100,0,0,100,30.09,29.82,18,-4,22,0.00
2013-3-21,59,51,44,-100,-100,-100,0,0,100,29.93,29.78,16,8,25,0.00
2013-3-22,51,46,40,-100,-100,-100,0,0,100,30.09,29.93,17,6,22,0.00
2013-3-23,55,51,46,-100,-100,-100,0,0,100,30.04,29.85,19,-27,23,0.00
2013-3-24,67,54,48,-100,-100,-100,0,0,100,29.88,29.44,22,11,29,0.00
2013-3-25,56,50,46,-100,-100,-100,0,0,100,29.95,29.57,21,11,33,0.00
2013-3-26,51,44,37,-100,-100,-100,0,0,100,30.16,29.95,15,9,23,0.00
2013-3-27,59,48,38,-100,-100,-100,0,0,100,30.26,30.15,11,6,21,0.00
2013-3-28,61,51,41,-100,-100,-100,0,0,100,30.29,30.17,15,0,21,0.00
2013-3-29,58,52,45,-100,-100,-100,0,0,100,30.34,30.22,13,-28,17,0.00
2013-3-30,69,60,54,-100,-100,-100,0,0,100,30.24,30.08,17,-28,23,0.00
2013-3-31,68,63,57,-100,-100,-100,0,0,100,30.09,29.90,17,11,24,0.00
2013-4-1,76,67,62,-100,-100,-100,0,0,100,29.94,29.84,14,-1,21,0.00
2013-4-2,65,58,55,-100,-100,-100,0,0,100,30.13,29.93,17,9,21,0.00
2013-4-3,63,57,54,-100,-100,-100,0,0,100,30.23,30.05,25,-25,27,0.00
2013-4-4,64,57,52,-100,-100,-100,0,0,100,30.23,29.82,28,15,36,0.00
2013-4-5,59,52,45,-100,-100,-100,0,0,100,30.01,29.85,16,8,22,0.00
2013-4-6,67,57,49,-100,-100,-100,0,0,100,30.22,30.01,17,6,20,0.00
2013-4-7,66,60,55,-100,-100,-100,0,0,100,30.24,30.14,13,8,15,0.00
2013-4-8,71,64,58,-100,-100,-100,0,0,100,30.19,30.11,15,-143,18,0.00
2013-4-9,77,68,62,-100,-100,-100,0,0,100,30.22,30.12,14,-24,16,0.00
2013-4-10,74,69,63,-100,-100,-100,0,0,100,30.17,30.02,14,0,19,0.00
2013-4-11,74,69,64,-100,-100,-100,0,0,100,30.03,29.84,19,-7,27,0.00
2013-4-12,77,71,68,-100,-100,-100,0,0,100,29.86,29.72,21,12,29,0.00
2013-4-13,70,65,58,-100,-100,-100,0,0,100,30.02,29.82,13,7,16,0.00
2013-4-14,70,66,62,-100,-100,-100,0,0,100,30.08,29.93,22,8,27,0.00
2013-4-15,71,67,64,-100,-100,-100,0,0,100,30.15,29.87,19,9,27,0.00
2013-4-16,74,68,63,-100,-100,-100,0,0,100,30.23,30.14,12,4,15,0.00
2013-4-17,71,68,62,-100,-100,-100,0,0,100,30.22,30.14,13,6,14,0.00
2013-4-18,74,71,67,-100,-100,-100,0,0,100,30.14,30.03,16,8,18,0.00
2013-4-19,76,72,68,-100,-100,-100,0,0,100,30.03,29.86,20,12,33,0.00
2013-4-20,70,58,52,-100,-100,-100,0,0,100,30.23,29.91,16,9,23,0.00
2013-4-21,65,59,53,-100,-100,-100,0,0,100,30.32,30.22,29,12,37,0.00
2013-4-22,68,58,50,-100,-100,-100,0,0,100,30.28,30.11,25,17,34,0.00
2013-4-23,63,58,54,-100,-100,-100,0,0,100,30.20,30.13,18,10,22,0.00
2013-4-24,74,65,56,-100,-100,-100,0,0,100,30.18,30.06,14,-35,21,0.00
2013-4-25,77,69,65,-100,-100,-100,0,0,100,30.21,30.08,14,6,20,0.00
2013-4-26,69,64,59,-100,-100,-100,0,0,100,30.37,30.21,21,12,27,0.00
2013-4-27,69,66,61,-100,-100,-100,0,0,100,30.34,30.23,18,9,21,0.00
2013-4-28,70,68,64,-100,-100,-100,0,0,100,30.23,30.04,17,9,21,0.00
2013-4-29,76,70,64,-100,-100,-100,0,0,100,30.05,29.95,16,8,20,0.00
2013-4-30,71,68,65,-100,-100,-100,0,0,100,30.08,29.95,18,1,20,0.00
2013-5-1,70,65,61,-100,-100,-100,0,0,100,30.16,30.06,18,13,25,0.00
2013-5-2,70,67,64,-100,-100,-100,0,0,100,30.15,30.09,28,19,38,0.00
2013-5-3,68,64,61,-100,-100,-100,0,0,100,30.10,29.99,30,14,41,0.00
2013-5-4,64,62,60,-100,-100,-100,0,0,100,30.00,29.89,29,22,37,0.00
2013-5-5,69,66,63,-100,-100,-100,0,0,100,29.89,29.77,27,17,36,0.00
2013-5-6,69,65,62,-100,-100,-100,0,0,100,29.92,29.82,17,8,21,0.00
2013-5-7,67,63,59,-100,-100,-100,0,0,100,29.97,29.89,17,6,22,0.00
2013-5-8,74,66,58,-100,-100,-100,0,0,100,30.05,29.95,14,6,19,0.00
2013-5-9,82,72,65,-100,-100,-100,0,0,100,30.09,30.01,14,8,19,0.00
2013-5-10,79,71,67,-100,-100,-100,0,0,100,30.10,30.01,14,7,18,0.00
2013-5-11,80,74,71,-100,-100,-100,0,0,100,30.03,29.88,15,8,19,0.00
2013-5-12,83,75,70,-100,-100,-100,0,0,100,29.99,29.85,13,7,22,0.00
2013-5-13,74,67,61,-100,-100,-100,0,0,100,30.14,29.98,12,6,20,0.00
2013-5-14,69,64,57,-100,-100,-100,0,0,100,30.26,30.12,14,8,17,0.00
2013-5-15,80,71,64,-100,-100,-100,0,0,100,30.17,30.02,17,9,23,0.00
2013-5-16,84,69,68,-100,-100,-100,0,0,100,30.07,30.00,13,8,19,0.00
2013-5-17,82,73,69,-100,-100,-100,0,0,100,30.11,30.04,14,8,15,0.00
2013-5-18,78,74,71,-100,-100,-100,0,0,100,30.15,30.08,12,6,16,0.00
2013-5-19,76,74,70,-100,-100,-100,0,0,100,30.13,30.06,14,8,17,0.00
2013-5-20,78,75,74,-100,-100,-100,0,0,100,30.11,30.03,16,9,22,0.00
2013-5-21,75,73,67,-100,-100,-100,0,0,100,30.09,29.98,16,-9,18,0.00
2013-5-22,77,74,71,-100,-100,-100,0,0,100,30.02,29.93,12,-9,15,0.00
2013-5-23,80,76,73,-100,-100,-100,0,0,100,29.96,29.85,16,7,19,0.00
2013-5-24,84,76,70,-100,-100,-100,0,0,100,30.16,29.85,15,8,22,0.00
2013-5-25,76,67,60,-100,-100,-100,0,0,100,30.29,30.15,16,8,21,0.00
2013-5-26,77,71,64,-100,-100,-100,0,0,100,30.25,30.15,18,7,21,0.00
2013-5-27,76,73,69,-100,-100,-100,0,0,100,30.24,30.17,11,-22,14,0.00
2013-5-28,76,75,73,-100,-100,-100,0,0,100,30.26,30.17,11,-21,16,0.00
2013-5-29,76,75,74,-100,-100,-100,0,0,100,30.26,30.16,16,9,18,0.00
2013-5-30,78,76,74,-100,-100,-100,0,0,100,30.25,30.17,13,-14,16,0.00
2013-5-31,78,77,75,-100,-100,-100,0,0,100,30.23,30.14,13,8,16,0.00
2013-6-1,78,77,75,-100,-100,-100,0,0,100,30.15,30.07,12,8,15,0.00
2013-6-2,79,77,76,-100,-100,-100,0,0,100,30.11,29.95,17,11,22,0.00
2013-6-3,80,77,72,-100,-100,-100,0,0,100,29.96,29.86,16,-6,20,0.00
2013-6-4,82,77,74,-100,-100,-100,0,0,100,30.03,29.91,12,-23,14,0.00
2013-6-5,79,77,74,-100,-100,-100,0,0,100,30.04,29.94,20,10,23,0.00
2013-6-6,78,76,71,-100,-100,-100,0,0,100,29.97,29.69,21,10,26,0.00
2013-6-7,85,78,74,-100,-100,-100,0,0,100,29.87,29.51,34,16,41,0.00
2013-6-8,84,80,77,-100,-100,-100,0,0,100,30.10,29.86,15,9,20,0.00
2013-6-9,81,79,77,-100,-100,-100,0,0,100,30.14,30.07,16,8,20,0.00
2013-6-10,83,79,71,-100,-100,-100,0,0,100,30.11,29.98,19,11,31,0.00
2013-6-11,87,78,73,-100,-100,-100,0,0,100,30.04,29.94,14,8,20,0.00
2013-6-12,92,84,77,-100,-100,-100,0,0,100,30.00,29.91,10,6,16,0.00
2013-6-13,93,86,81,-100,-100,-100,0,0,100,29.94,29.73,17,9,25,0.00
2013-6-14,87,82,78,-100,-100,-100,0,0,100,29.99,29.72,12,5,16,0.00
2013-6-15,79,77,74,-100,-100,-100,0,0,100,30.13,29.98,13,8,17,0.00
2013-6-16,80,78,75,-100,-100,-100,0,0,100,30.16,30.07,11,7,17,0.00
2013-6-17,83,79,76,-100,-100,-100,0,0,100,30.09,29.98,14,8,18,0.00
2013-6-18,88,80,71,-100,-100,-100,0,0,100,30.01,29.87,15,8,23,0.00
2013-6-19,88,79,72,-100,-100,-100,0,0,100,30.04,29.89,13,7,21,0.00
2013-6-20,78,75,74,-100,-100,-100,0,0,100,30.14,30.01,19,12,23,0.00
2013-6-22,80,79,78,-100,-100,-100,0,0,100,30.16,30.11,11,7,13,0.00
2013-6-23,81,79,77,-100,-100,-100,0,0,100,30.19,30.12,14,8,17,0.00
2013-6-28,87,83,79,-100,-100,-100,0,0,100,29.84,29.67,19,10,28,0.00
2013-6-29,85,80,75,-100,-100,-100,0,0,100,29.78,29.69,14,7,21,0.00
2013-6-30,82,79,74,-100,-100,-100,0,0,100,29.86,29.73,21,8,26,0.00
2013-7-1,82,80,75,-100,-100,-100,0,0,100,30.01,29.83,19,12,27,0.00
2013-7-2,81,80,76,-100,-100,-100,0,0,100,30.15,30.01,21,12,26,0.00
2013-7-3,82,80,77,-100,-100,-100,0,0,100,30.21,30.12,19,10,23,0.00
2013-7-4,82,81,80,-100,-100,-100,0,0,100,30.23,30.17,19,12,27,0.00
2013-7-5,82,81,77,-100,-100,-100,0,0,100,30.23,30.17,20,10,26,0.00
2013-7-6,83,81,78,-100,-100,-100,0,0,100,30.22,30.14,18,10,23,0.00
2013-7-7,82,81,79,-100,-100,-100,0,0,100,30.20,30.11,13,8,15,0.00
2013-11-30,-200,0,200,-100,-100,-100,0,0,100,30.51,30.31,21,10,28,0.00
2013-12-1,-200,0,200,-100,-100,-100,0,0,100,30.31,30.01,12,5,16,0.00
2013-12-2,-200,0,200,-100,-100,-100,0,0,100,30.01,29.82,8,4,12,0.00